EGEO/OBN METAR and TAF weather

Enter ICAO airport designator
Station Type Date Time Source
EGEO METAR 2019/08/21 09:20 UTC NOAA

EGEO 210920Z 18013KT 9999 FEW018 SCT023 BKN032 15/12 Q1018


Station Type Date Time Source
EGEO Decoded METAR 2019/08/21 09:20 UTC NOAA

Station name not available
Aug 21, 2019 - 05:20 AM EDT / 2019.08.21 0920 UTC
Wind: from the S (180 degrees) at 15 MPH (13 KT):0
Visibility: greater than 7 mile(s):0
Sky conditions: mostly cloudy
Temperature: 59 F (15 C)
Dew Point: 53 F (12 C)
Relative Humidity: 82%
Pressure (altimeter): 30.06 in. Hg (1018 hPa)
ob: EGEO 210920Z 18013KT 9999 FEW018 SCT023 BKN032 15/12 Q1018
cycle: 9

Station Type Date Time Source
EGEO TAF UTC NOAA

Error!

Example: see airport list